メインページ
METAR-TAF:

METAR-TAF

空港 :

メヘラーバード国際空港

テヘラン, イラン

緯度: 35-41N, 経度: 051-21E, 海抜: 1204m

現時点の気象観測

当レポートは20分前の03:00(UTC)に作成
無風
気温 17°C
湿度 42%
気圧 1029 hPa
視程10km以上
高度4000ftの雲はほとんどない
高度10000ftの雲は散在している

METAR: OIII 140300Z 00000KT 9999 FEW040 SCT100 17/04 Q1028 A3038 NOSIG

時間: 06:50 (03:20 UTC)

予報

当レポートは4時間20分前の23:00(UTC)に作成
予報は14日の 00時(UTC)から 15日の 06時(UTC)まで有効
西の風 8kt
視程: 8000m
高度4000ftの雲はほとんどない
高度10000ftの雲は散在している
14日の 00時(UTC)から 14日の 04時(UTC)まで一時的に
高度3000ftの雲はほとんどない, 積乱雲.
高度3500ftの雲は散在している
高度10000ftの千切れ雲あり
14日の 09時(UTC)から 14日の 15時(UTC)まで一時的に
西/南西の風 16kt
高度3500ftの雲はほとんどない, 積乱雲.
高度4000ftの雲は散在している
高度9000ftの千切れ雲あり

TAF: OIII 132300Z 1400/1506 28008KT 8000 FEW040 SCT100 TEMPO 1400/1404 FEW030CB SCT035 BKN100 TEMPO 1409/1415 24016KT FEW035CB SCT040 BKN090

4,000以上の空港の気象観測と天気予報(METAR報とTAF報)

利用可能な観測所は地図上に黄色い丸と赤い丸で示す。

丸の上にカーソルを重ねると観測所名を参照できる。

次にクリックすると気象観測と天気予報を参照できる。

マップの切り替え:黒色「×」印の緑ボタンをクリックして拡大、「-」印の緑ボタンをクリックして縮小、緑色の三角印をクリックして隣りの地図に切り替え


METAR-TAF: